Anchorage/Merrill Field, Alaska
Current Conditions -  °F | °C
As of 2:53 AM on Sunday 25 Jan 2015 (Local Time) from PAMR Reporting Station
Broken Clouds Broken Clouds  
Wind Chill:   Ceiling: 8000
Heat Index:   Visibility: 10mi
Dew Point: -5°   Wind: 3mph
Humidity: 75%   Direction: 80°E
Pressure: 29.52"   Gusts: NA
Location:  61.21°N, 149.85°W
Report Text: PAMR 251153Z 08003KT 10SM SCT055 BKN080 M17/M21 A2952 RMK AO2 SLP001 T11721206 11100 21172 53014
Loading
Personal Weather Stations






























Interactive Weather Map New forecast layout! Learn more

10-Day Weather Forecast

Advertisements
Track Severe Weather on mobile